Round Pond, Arkansas
Current Conditions -  °F | °C
As of 9:53 AM on Friday 31 Oct 2014 (Local Time) from KAWM Reporting Station
Broken Clouds Broken Clouds  
Wind Chill: 53°   Ceiling: 1800
Heat Index: 53°   Visibility: 10mi
Dew Point: 48°   Wind: 14mph
Humidity: 83%   Direction: 360°N
Pressure: 30.13"   Gusts: 26mph
Location:  35.08°N, 90.5845°W
Report Text: KAWM 311453Z AUTO 36012G23KT 10SM BKN018 12/09 A3013 RMK AO2 SLP201 T01170089 53031
Loading
Personal Weather Stations






























Interactive Weather Map
Tropical Storm Tracking
New forecast layout! Learn more

10-Day Weather Forecast

Advertisements
Track Severe Weather on mobile